sensor_id;sensor_type;location;lat;lon;timestamp;P1;durP1;ratioP1;P2;durP2;ratioP2
7150;SDS011;3617;48.836;9.172;2023-06-14T00:01:33;5.13;;;3.03;;
7150;SDS011;3617;48.836;9.172;2023-06-14T00:03:59;4.03;;;3.13;;
7150;SDS011;3617;48.836;9.172;2023-06-14T00:06:26;4.70;;;2.87;;
7150;SDS011;3617;48.836;9.172;2023-06-14T00:08:52;5.43;;;3.07;;
7150;SDS011;3617;48.836;9.172;2023-06-14T00:11:19;5.90;;;3.00;;
7150;SDS011;3617;48.836;9.172;2023-06-14T00:13:45;3.03;;;2.60;;
7150;SDS011;3617;48.836;9.172;2023-06-14T00:16:11;3.23;;;2.70;;
7150;SDS011;3617;48.836;9.172;2023-06-14T00:18:37;5.07;;;2.90;;
7150;SDS011;3617;48.836;9.172;2023-06-14T00:21:04;3.90;;;2.77;;
7150;SDS011;3617;48.836;9.172;2023-06-14T00:23:30;4.13;;;2.70;;
7150;SDS011;3617;48.836;9.172;2023-06-14T00:25:56;4.63;;;2.93;;
7150;SDS011;3617;48.836;9.172;2023-06-14T00:28:22;6.00;;;2.87;;
7150;SDS011;3617;48.836;9.172;2023-06-14T00:30:48;4.33;;;2.93;;
7150;SDS011;3617;48.836;9.172;2023-06-14T00:33:14;4.07;;;2.90;;
7150;SDS011;3617;48.836;9.172;2023-06-14T00:35:40;3.77;;;2.80;;
7150;SDS011;3617;48.836;9.172;2023-06-14T00:38:06;4.30;;;2.83;;
7150;SDS011;3617;48.836;9.172;2023-06-14T00:40:32;6.40;;;2.90;;
7150;SDS011;3617;48.836;9.172;2023-06-14T00:42:59;5.40;;;3.20;;
7150;SDS011;3617;48.836;9.172;2023-06-14T00:45:26;6.00;;;2.87;;
7150;SDS011;3617;48.836;9.172;2023-06-14T00:47:52;3.50;;;2.80;;
7150;SDS011;3617;48.836;9.172;2023-06-14T00:50:20;3.10;;;2.50;;
7150;SDS011;3617;48.836;9.172;2023-06-14T00:52:48;5.53;;;3.03;;
7150;SDS011;3617;48.836;9.172;2023-06-14T00:55:14;4.37;;;2.70;;
7150;SDS011;3617;48.836;9.172;2023-06-14T00:57:40;5.70;;;2.60;;
7150;SDS011;3617;48.836;9.172;2023-06-14T01:00:07;4.73;;;3.07;;
7150;SDS011;3617;48.836;9.172;2023-06-14T01:02:38;4.43;;;2.87;;
7150;SDS011;3617;48.836;9.172;2023-06-14T01:05:04;3.83;;;3.00;;
7150;SDS011;3617;48.836;9.172;2023-06-14T01:12:44;4.27;;;3.27;;
7150;SDS011;3617;48.836;9.172;2023-06-14T01:15:13;4.77;;;3.10;;
7150;SDS011;3617;48.836;9.172;2023-06-14T01:17:39;3.87;;;2.83;;
7150;SDS011;3617;48.836;9.172;2023-06-14T01:20:09;4.27;;;3.10;;
7150;SDS011;3617;48.836;9.172;2023-06-14T01:22:43;3.73;;;2.73;;
7150;SDS011;3617;48.836;9.172;2023-06-14T01:25:09;3.10;;;2.80;;
7150;SDS011;3617;48.836;9.172;2023-06-14T01:27:37;4.37;;;3.10;;
7150;SDS011;3617;48.836;9.172;2023-06-14T01:30:03;4.60;;;3.03;;
7150;SDS011;3617;48.836;9.172;2023-06-14T01:32:30;3.27;;;2.93;;
7150;SDS011;3617;48.836;9.172;2023-06-14T01:34:56;4.93;;;2.87;;
7150;SDS011;3617;48.836;9.172;2023-06-14T01:37:22;4.63;;;2.90;;
7150;SDS011;3617;48.836;9.172;2023-06-14T01:39:48;4.23;;;2.87;;
7150;SDS011;3617;48.836;9.172;2023-06-14T01:42:15;4.53;;;3.33;;
7150;SDS011;3617;48.836;9.172;2023-06-14T01:44:42;3.83;;;2.60;;
7150;SDS011;3617;48.836;9.172;2023-06-14T01:47:08;4.33;;;2.97;;
7150;SDS011;3617;48.836;9.172;2023-06-14T01:49:34;5.77;;;3.30;;
7150;SDS011;3617;48.836;9.172;2023-06-14T01:52:01;6.37;;;3.20;;
7150;SDS011;3617;48.836;9.172;2023-06-14T01:54:27;4.23;;;2.83;;
7150;SDS011;3617;48.836;9.172;2023-06-14T01:56:54;3.87;;;2.70;;
7150;SDS011;3617;48.836;9.172;2023-06-14T01:59:21;4.17;;;2.80;;
7150;SDS011;3617;48.836;9.172;2023-06-14T02:01:47;5.07;;;3.30;;
7150;SDS011;3617;48.836;9.172;2023-06-14T02:04:13;4.20;;;3.20;;
7150;SDS011;3617;48.836;9.172;2023-06-14T02:06:39;3.80;;;2.87;;
7150;SDS011;3617;48.836;9.172;2023-06-14T02:09:05;4.13;;;3.00;;
7150;SDS011;3617;48.836;9.172;2023-06-14T02:11:31;4.60;;;2.90;;
7150;SDS011;3617;48.836;9.172;2023-06-14T02:13:57;5.00;;;3.00;;
7150;SDS011;3617;48.836;9.172;2023-06-14T02:16:24;4.60;;;3.20;;
7150;SDS011;3617;48.836;9.172;2023-06-14T02:18:52;5.60;;;2.90;;
7150;SDS011;3617;48.836;9.172;2023-06-14T02:21:18;6.83;;;2.63;;
7150;SDS011;3617;48.836;9.172;2023-06-14T02:23:44;3.87;;;3.03;;
7150;SDS011;3617;48.836;9.172;2023-06-14T02:26:11;6.33;;;2.90;;
7150;SDS011;3617;48.836;9.172;2023-06-14T02:28:37;4.23;;;3.00;;
7150;SDS011;3617;48.836;9.172;2023-06-14T02:31:03;4.00;;;2.97;;
7150;SDS011;3617;48.836;9.172;2023-06-14T02:33:29;3.93;;;3.00;;
7150;SDS011;3617;48.836;9.172;2023-06-14T02:35:55;6.10;;;3.43;;
7150;SDS011;3617;48.836;9.172;2023-06-14T02:38:22;4.13;;;2.80;;
7150;SDS011;3617;48.836;9.172;2023-06-14T02:40:48;4.00;;;2.90;;
7150;SDS011;3617;48.836;9.172;2023-06-14T02:43:14;3.97;;;2.90;;
7150;SDS011;3617;48.836;9.172;2023-06-14T02:45:42;4.33;;;3.57;;
7150;SDS011;3617;48.836;9.172;2023-06-14T02:48:08;4.10;;;3.00;;
7150;SDS011;3617;48.836;9.172;2023-06-14T02:50:34;6.10;;;3.37;;
7150;SDS011;3617;48.836;9.172;2023-06-14T02:53:00;3.93;;;3.20;;
7150;SDS011;3617;48.836;9.172;2023-06-14T02:55:27;5.40;;;3.60;;
7150;SDS011;3617;48.836;9.172;2023-06-14T02:57:53;3.43;;;2.87;;
7150;SDS011;3617;48.836;9.172;2023-06-14T03:00:19;6.57;;;3.47;;
7150;SDS011;3617;48.836;9.172;2023-06-14T03:02:45;4.23;;;2.83;;
7150;SDS011;3617;48.836;9.172;2023-06-14T03:05:11;4.40;;;3.00;;
7150;SDS011;3617;48.836;9.172;2023-06-14T03:07:37;5.43;;;3.10;;
7150;SDS011;3617;48.836;9.172;2023-06-14T03:10:06;7.40;;;3.33;;
7150;SDS011;3617;48.836;9.172;2023-06-14T03:12:33;6.87;;;3.53;;
7150;SDS011;3617;48.836;9.172;2023-06-14T03:14:59;4.53;;;2.80;;
7150;SDS011;3617;48.836;9.172;2023-06-14T03:17:29;4.63;;;3.30;;
7150;SDS011;3617;48.836;9.172;2023-06-14T03:19:58;5.20;;;2.90;;
7150;SDS011;3617;48.836;9.172;2023-06-14T03:22:24;4.47;;;2.93;;
7150;SDS011;3617;48.836;9.172;2023-06-14T03:24:50;5.20;;;3.40;;
7150;SDS011;3617;48.836;9.172;2023-06-14T03:27:17;4.53;;;3.10;;
7150;SDS011;3617;48.836;9.172;2023-06-14T03:29:43;4.87;;;3.20;;
7150;SDS011;3617;48.836;9.172;2023-06-14T03:32:09;5.73;;;3.30;;
7150;SDS011;3617;48.836;9.172;2023-06-14T03:34:35;4.83;;;3.00;;
7150;SDS011;3617;48.836;9.172;2023-06-14T03:37:03;5.07;;;3.10;;
7150;SDS011;3617;48.836;9.172;2023-06-14T03:39:29;4.10;;;3.20;;
7150;SDS011;3617;48.836;9.172;2023-06-14T03:41:56;5.70;;;3.50;;
7150;SDS011;3617;48.836;9.172;2023-06-14T03:44:22;5.87;;;3.63;;
7150;SDS011;3617;48.836;9.172;2023-06-14T03:46:48;6.83;;;3.67;;
7150;SDS011;3617;48.836;9.172;2023-06-14T03:49:14;4.50;;;3.37;;
7150;SDS011;3617;48.836;9.172;2023-06-14T03:51:42;4.73;;;3.20;;
7150;SDS011;3617;48.836;9.172;2023-06-14T03:54:08;6.30;;;3.33;;
7150;SDS011;3617;48.836;9.172;2023-06-14T03:56:34;5.73;;;3.70;;
7150;SDS011;3617;48.836;9.172;2023-06-14T03:59:00;5.43;;;3.50;;
7150;SDS011;3617;48.836;9.172;2023-06-14T04:01:27;4.40;;;3.43;;
7150;SDS011;3617;48.836;9.172;2023-06-14T04:03:55;5.00;;;3.57;;
7150;SDS011;3617;48.836;9.172;2023-06-14T04:06:21;4.13;;;3.40;;
7150;SDS011;3617;48.836;9.172;2023-06-14T04:08:49;8.97;;;3.77;;
7150;SDS011;3617;48.836;9.172;2023-06-14T04:11:15;6.53;;;3.57;;
7150;SDS011;3617;48.836;9.172;2023-06-14T04:13:41;7.50;;;3.63;;
7150;SDS011;3617;48.836;9.172;2023-06-14T04:16:07;5.77;;;3.60;;
7150;SDS011;3617;48.836;9.172;2023-06-14T04:18:33;5.87;;;3.57;;
7150;SDS011;3617;48.836;9.172;2023-06-14T04:20:59;4.77;;;3.33;;
7150;SDS011;3617;48.836;9.172;2023-06-14T04:23:25;4.67;;;3.60;;
7150;SDS011;3617;48.836;9.172;2023-06-14T04:25:53;3.80;;;3.13;;
7150;SDS011;3617;48.836;9.172;2023-06-14T04:28:19;9.80;;;4.00;;
7150;SDS011;3617;48.836;9.172;2023-06-14T04:30:45;4.30;;;3.43;;
7150;SDS011;3617;48.836;9.172;2023-06-14T04:33:12;4.20;;;3.50;;
7150;SDS011;3617;48.836;9.172;2023-06-14T04:35:38;6.23;;;3.83;;
7150;SDS011;3617;48.836;9.172;2023-06-14T04:38:05;3.73;;;3.30;;
7150;SDS011;3617;48.836;9.172;2023-06-14T04:40:35;4.80;;;3.73;;
7150;SDS011;3617;48.836;9.172;2023-06-14T04:43:07;5.40;;;4.07;;
7150;SDS011;3617;48.836;9.172;2023-06-14T04:45:33;5.47;;;3.87;;
7150;SDS011;3617;48.836;9.172;2023-06-14T04:47:59;4.80;;;3.70;;
7150;SDS011;3617;48.836;9.172;2023-06-14T04:50:26;6.20;;;3.70;;
7150;SDS011;3617;48.836;9.172;2023-06-14T04:52:52;4.17;;;3.60;;
7150;SDS011;3617;48.836;9.172;2023-06-14T04:55:19;5.22;;;3.50;;
7150;SDS011;3617;48.836;9.172;2023-06-14T04:57:45;5.97;;;3.65;;
7150;SDS011;3617;48.836;9.172;2023-06-14T05:00:11;5.30;;;3.57;;
7150;SDS011;3617;48.836;9.172;2023-06-14T05:02:37;4.40;;;3.42;;
7150;SDS011;3617;48.836;9.172;2023-06-14T05:05:03;4.93;;;3.30;;
7150;SDS011;3617;48.836;9.172;2023-06-14T05:07:32;6.00;;;3.42;;
7150;SDS011;3617;48.836;9.172;2023-06-14T05:09:58;5.53;;;3.35;;
7150;SDS011;3617;48.836;9.172;2023-06-14T05:12:24;4.07;;;3.65;;
7150;SDS011;3617;48.836;9.172;2023-06-14T05:14:51;5.30;;;4.10;;
7150;SDS011;3617;48.836;9.172;2023-06-14T05:17:17;5.38;;;3.75;;
7150;SDS011;3617;48.836;9.172;2023-06-14T05:19:43;4.20;;;3.72;;
7150;SDS011;3617;48.836;9.172;2023-06-14T05:22:09;5.85;;;3.42;;
7150;SDS011;3617;48.836;9.172;2023-06-14T05:24:35;4.47;;;3.50;;
7150;SDS011;3617;48.836;9.172;2023-06-14T05:27:01;4.78;;;3.63;;
7150;SDS011;3617;48.836;9.172;2023-06-14T05:29:27;4.57;;;3.60;;
7150;SDS011;3617;48.836;9.172;2023-06-14T05:31:53;8.68;;;3.72;;
7150;SDS011;3617;48.836;9.172;2023-06-14T05:34:19;3.85;;;3.35;;
7150;SDS011;3617;48.836;9.172;2023-06-14T05:36:45;4.97;;;3.67;;
7150;SDS011;3617;48.836;9.172;2023-06-14T05:39:11;5.13;;;3.78;;
7150;SDS011;3617;48.836;9.172;2023-06-14T05:41:38;6.38;;;3.55;;
7150;SDS011;3617;48.836;9.172;2023-06-14T05:44:04;3.60;;;3.22;;
7150;SDS011;3617;48.836;9.172;2023-06-14T05:46:30;4.57;;;3.35;;
7150;SDS011;3617;48.836;9.172;2023-06-14T05:48:56;4.22;;;3.45;;
7150;SDS011;3617;48.836;9.172;2023-06-14T05:51:23;4.35;;;3.65;;
7150;SDS011;3617;48.836;9.172;2023-06-14T05:53:50;4.35;;;3.55;;
7150;SDS011;3617;48.836;9.172;2023-06-14T05:56:16;5.72;;;3.85;;
7150;SDS011;3617;48.836;9.172;2023-06-14T05:58:43;4.07;;;3.28;;
7150;SDS011;3617;48.836;9.172;2023-06-14T06:01:09;5.13;;;3.78;;
7150;SDS011;3617;48.836;9.172;2023-06-14T06:03:35;4.90;;;3.90;;
7150;SDS011;3617;48.836;9.172;2023-06-14T06:06:01;4.53;;;3.60;;
7150;SDS011;3617;48.836;9.172;2023-06-14T06:08:28;6.10;;;3.35;;
7150;SDS011;3617;48.836;9.172;2023-06-14T06:10:54;4.45;;;3.67;;
7150;SDS011;3617;48.836;9.172;2023-06-14T06:13:20;4.18;;;3.63;;
7150;SDS011;3617;48.836;9.172;2023-06-14T06:15:46;4.32;;;3.10;;
7150;SDS011;3617;48.836;9.172;2023-06-14T06:18:12;4.07;;;3.30;;
7150;SDS011;3617;48.836;9.172;2023-06-14T06:20:38;3.88;;;3.25;;
7150;SDS011;3617;48.836;9.172;2023-06-14T06:23:04;4.40;;;3.40;;
7150;SDS011;3617;48.836;9.172;2023-06-14T06:25:30;4.20;;;3.25;;
7150;SDS011;3617;48.836;9.172;2023-06-14T06:27:56;4.50;;;3.30;;
7150;SDS011;3617;48.836;9.172;2023-06-14T06:30:23;3.58;;;3.10;;
7150;SDS011;3617;48.836;9.172;2023-06-14T06:32:49;6.30;;;3.40;;
7150;SDS011;3617;48.836;9.172;2023-06-14T06:35:15;4.70;;;3.20;;
7150;SDS011;3617;48.836;9.172;2023-06-14T06:37:42;3.88;;;3.15;;
7150;SDS011;3617;48.836;9.172;2023-06-14T06:40:08;3.15;;;2.85;;
7150;SDS011;3617;48.836;9.172;2023-06-14T06:42:35;3.75;;;3.00;;
7150;SDS011;3617;48.836;9.172;2023-06-14T06:45:01;7.03;;;3.17;;
7150;SDS011;3617;48.836;9.172;2023-06-14T06:47:27;4.45;;;2.92;;
7150;SDS011;3617;48.836;9.172;2023-06-14T06:49:53;3.03;;;2.75;;
7150;SDS011;3617;48.836;9.172;2023-06-14T06:52:19;3.67;;;3.08;;
7150;SDS011;3617;48.836;9.172;2023-06-14T06:54:45;4.20;;;3.22;;
7150;SDS011;3617;48.836;9.172;2023-06-14T06:57:11;5.72;;;3.80;;
7150;SDS011;3617;48.836;9.172;2023-06-14T06:59:37;6.13;;;4.40;;
7150;SDS011;3617;48.836;9.172;2023-06-14T07:02:03;4.13;;;3.40;;
7150;SDS011;3617;48.836;9.172;2023-06-14T07:04:30;4.15;;;3.20;;
7150;SDS011;3617;48.836;9.172;2023-06-14T07:06:56;4.45;;;3.05;;
7150;SDS011;3617;48.836;9.172;2023-06-14T07:09:22;4.25;;;3.55;;
7150;SDS011;3617;48.836;9.172;2023-06-14T07:11:49;3.65;;;3.28;;
7150;SDS011;3617;48.836;9.172;2023-06-14T07:14:15;4.55;;;2.92;;
7150;SDS011;3617;48.836;9.172;2023-06-14T07:16:41;3.72;;;3.13;;
7150;SDS011;3617;48.836;9.172;2023-06-14T07:19:08;4.95;;;3.65;;
7150;SDS011;3617;48.836;9.172;2023-06-14T07:21:35;3.85;;;3.40;;
7150;SDS011;3617;48.836;9.172;2023-06-14T07:24:03;4.10;;;3.35;;
7150;SDS011;3617;48.836;9.172;2023-06-14T07:26:29;3.88;;;3.22;;
7150;SDS011;3617;48.836;9.172;2023-06-14T07:28:55;4.10;;;3.33;;
7150;SDS011;3617;48.836;9.172;2023-06-14T07:31:21;3.60;;;3.15;;
7150;SDS011;3617;48.836;9.172;2023-06-14T07:33:47;4.35;;;3.70;;
7150;SDS011;3617;48.836;9.172;2023-06-14T07:36:13;3.45;;;3.05;;
7150;SDS011;3617;48.836;9.172;2023-06-14T07:38:39;4.78;;;3.67;;
7150;SDS011;3617;48.836;9.172;2023-06-14T07:41:05;5.90;;;3.85;;
7150;SDS011;3617;48.836;9.172;2023-06-14T07:43:31;4.57;;;3.42;;
7150;SDS011;3617;48.836;9.172;2023-06-14T07:45:57;4.18;;;3.13;;
7150;SDS011;3617;48.836;9.172;2023-06-14T07:48:23;4.43;;;3.38;;
7150;SDS011;3617;48.836;9.172;2023-06-14T07:50:49;4.72;;;3.22;;
7150;SDS011;3617;48.836;9.172;2023-06-14T07:53:15;3.30;;;3.00;;
7150;SDS011;3617;48.836;9.172;2023-06-14T07:55:41;5.05;;;3.00;;
7150;SDS011;3617;48.836;9.172;2023-06-14T07:58:08;4.78;;;3.00;;
7150;SDS011;3617;48.836;9.172;2023-06-14T08:00:34;3.55;;;3.25;;
7150;SDS011;3617;48.836;9.172;2023-06-14T08:03:00;7.18;;;3.40;;
7150;SDS011;3617;48.836;9.172;2023-06-14T08:05:27;4.93;;;3.30;;
7150;SDS011;3617;48.836;9.172;2023-06-14T08:07:53;4.00;;;3.17;;
7150;SDS011;3617;48.836;9.172;2023-06-14T08:10:19;3.90;;;3.20;;
7150;SDS011;3617;48.836;9.172;2023-06-14T08:12:45;4.78;;;3.63;;
7150;SDS011;3617;48.836;9.172;2023-06-14T08:15:11;3.35;;;2.83;;
7150;SDS011;3617;48.836;9.172;2023-06-14T08:17:37;3.88;;;3.05;;
7150;SDS011;3617;48.836;9.172;2023-06-14T08:20:04;5.18;;;3.22;;
7150;SDS011;3617;48.836;9.172;2023-06-14T08:22:30;3.47;;;3.00;;
7150;SDS011;3617;48.836;9.172;2023-06-14T08:24:59;3.60;;;3.30;;
7150;SDS011;3617;48.836;9.172;2023-06-14T08:27:26;3.88;;;3.00;;
7150;SDS011;3617;48.836;9.172;2023-06-14T08:29:52;4.70;;;3.30;;
7150;SDS011;3617;48.836;9.172;2023-06-14T08:32:18;3.75;;;3.33;;
7150;SDS011;3617;48.836;9.172;2023-06-14T08:34:44;5.00;;;3.22;;
7150;SDS011;3617;48.836;9.172;2023-06-14T08:37:10;4.60;;;3.20;;
7150;SDS011;3617;48.836;9.172;2023-06-14T08:39:36;4.03;;;3.10;;
7150;SDS011;3617;48.836;9.172;2023-06-14T08:42:02;3.97;;;3.53;;
7150;SDS011;3617;48.836;9.172;2023-06-14T08:44:29;4.07;;;3.25;;
7150;SDS011;3617;48.836;9.172;2023-06-14T08:46:55;4.20;;;3.53;;
7150;SDS011;3617;48.836;9.172;2023-06-14T08:49:25;4.85;;;3.60;;
7150;SDS011;3617;48.836;9.172;2023-06-14T08:51:57;3.80;;;3.28;;
7150;SDS011;3617;48.836;9.172;2023-06-14T08:54:23;4.55;;;3.22;;
7150;SDS011;3617;48.836;9.172;2023-06-14T08:56:52;3.53;;;3.17;;
7150;SDS011;3617;48.836;9.172;2023-06-14T08:59:18;3.40;;;3.10;;
7150;SDS011;3617;48.836;9.172;2023-06-14T09:01:46;3.53;;;3.22;;
7150;SDS011;3617;48.836;9.172;2023-06-14T09:04:12;4.15;;;3.28;;
7150;SDS011;3617;48.836;9.172;2023-06-14T09:06:39;4.82;;;3.22;;
7150;SDS011;3617;48.836;9.172;2023-06-14T09:09:05;3.83;;;3.10;;
7150;SDS011;3617;48.836;9.172;2023-06-14T09:11:32;3.50;;;3.20;;
7150;SDS011;3617;48.836;9.172;2023-06-14T09:13:58;3.72;;;3.33;;
7150;SDS011;3617;48.836;9.172;2023-06-14T09:16:25;4.18;;;3.65;;
7150;SDS011;3617;48.836;9.172;2023-06-14T09:18:51;4.28;;;3.28;;
7150;SDS011;3617;48.836;9.172;2023-06-14T09:21:17;4.10;;;3.55;;
7150;SDS011;3617;48.836;9.172;2023-06-14T09:23:46;3.42;;;3.08;;
7150;SDS011;3617;48.836;9.172;2023-06-14T09:26:17;4.85;;;3.47;;
7150;SDS011;3617;48.836;9.172;2023-06-14T09:28:44;4.57;;;3.30;;
7150;SDS011;3617;48.836;9.172;2023-06-14T09:31:14;3.30;;;3.00;;
7150;SDS011;3617;48.836;9.172;2023-06-14T09:33:43;5.07;;;3.55;;
7150;SDS011;3617;48.836;9.172;2023-06-14T09:36:13;4.70;;;3.20;;
7150;SDS011;3617;48.836;9.172;2023-06-14T09:38:41;3.50;;;3.03;;
7150;SDS011;3617;48.836;9.172;2023-06-14T09:41:07;3.53;;;3.22;;
7150;SDS011;3617;48.836;9.172;2023-06-14T09:43:33;3.95;;;3.53;;
7150;SDS011;3617;48.836;9.172;2023-06-14T09:46:02;3.45;;;3.15;;
7150;SDS011;3617;48.836;9.172;2023-06-14T09:48:29;3.75;;;3.35;;
7150;SDS011;3617;48.836;9.172;2023-06-14T09:50:55;3.60;;;3.30;;
7150;SDS011;3617;48.836;9.172;2023-06-14T09:53:23;3.25;;;2.95;;
7150;SDS011;3617;48.836;9.172;2023-06-14T09:55:50;3.90;;;3.03;;
7150;SDS011;3617;48.836;9.172;2023-06-14T09:58:18;3.65;;;3.15;;
7150;SDS011;3617;48.836;9.172;2023-06-14T10:00:46;4.75;;;3.33;;
7150;SDS011;3617;48.836;9.172;2023-06-14T10:03:14;3.60;;;3.30;;
7150;SDS011;3617;48.836;9.172;2023-06-14T10:05:43;3.55;;;3.15;;
7150;SDS011;3617;48.836;9.172;2023-06-14T10:08:11;4.22;;;3.50;;
7150;SDS011;3617;48.836;9.172;2023-06-14T10:10:38;2.95;;;2.65;;
7150;SDS011;3617;48.836;9.172;2023-06-14T10:13:05;3.72;;;3.15;;
7150;SDS011;3617;48.836;9.172;2023-06-14T10:15:34;3.42;;;3.05;;
7150;SDS011;3617;48.836;9.172;2023-06-14T10:18:06;3.33;;;3.03;;
7150;SDS011;3617;48.836;9.172;2023-06-14T10:20:41;3.90;;;3.20;;
7150;SDS011;3617;48.836;9.172;2023-06-14T10:23:16;4.18;;;3.38;;
7150;SDS011;3617;48.836;9.172;2023-06-14T10:25:43;3.47;;;2.90;;
7150;SDS011;3617;48.836;9.172;2023-06-14T10:33:29;4.35;;;3.35;;
7150;SDS011;3617;48.836;9.172;2023-06-14T10:36:08;4.18;;;3.15;;
7150;SDS011;3617;48.836;9.172;2023-06-14T10:38:35;3.58;;;3.25;;
7150;SDS011;3617;48.836;9.172;2023-06-14T10:41:02;3.10;;;2.65;;
7150;SDS011;3617;48.836;9.172;2023-06-14T10:43:28;3.20;;;2.90;;
7150;SDS011;3617;48.836;9.172;2023-06-14T10:46:16;3.53;;;2.83;;
7150;SDS011;3617;48.836;9.172;2023-06-14T10:48:43;3.35;;;2.78;;
7150;SDS011;3617;48.836;9.172;2023-06-14T10:51:16;2.90;;;2.60;;
7150;SDS011;3617;48.836;9.172;2023-06-14T10:53:48;7.43;;;2.50;;
7150;SDS011;3617;48.836;9.172;2023-06-14T10:56:26;3.72;;;2.88;;
7150;SDS011;3617;48.836;9.172;2023-06-14T10:58:53;3.42;;;2.72;;
7150;SDS011;3617;48.836;9.172;2023-06-14T11:01:23;4.05;;;2.70;;
7150;SDS011;3617;48.836;9.172;2023-06-14T11:03:54;3.95;;;2.75;;
7150;SDS011;3617;48.836;9.172;2023-06-14T11:06:22;4.15;;;2.80;;
7150;SDS011;3617;48.836;9.172;2023-06-14T11:11:33;6.05;;;2.67;;
7150;SDS011;3617;48.836;9.172;2023-06-14T11:13:59;3.17;;;2.60;;
7150;SDS011;3617;48.836;9.172;2023-06-14T11:16:26;3.20;;;2.88;;
7150;SDS011;3617;48.836;9.172;2023-06-14T11:18:53;4.63;;;2.45;;
7150;SDS011;3617;48.836;9.172;2023-06-14T11:21:19;3.72;;;2.40;;
7150;SDS011;3617;48.836;9.172;2023-06-14T11:23:49;2.83;;;2.42;;
7150;SDS011;3617;48.836;9.172;2023-06-14T11:26:15;4.60;;;2.60;;
7150;SDS011;3617;48.836;9.172;2023-06-14T11:28:41;3.80;;;2.30;;
7150;SDS011;3617;48.836;9.172;2023-06-14T11:31:08;3.35;;;2.72;;
7150;SDS011;3617;48.836;9.172;2023-06-14T11:33:35;3.13;;;2.45;;
7150;SDS011;3617;48.836;9.172;2023-06-14T11:36:01;3.97;;;2.65;;
7150;SDS011;3617;48.836;9.172;2023-06-14T11:38:27;2.63;;;2.33;;
7150;SDS011;3617;48.836;9.172;2023-06-14T11:40:58;3.33;;;2.35;;
7150;SDS011;3617;48.836;9.172;2023-06-14T11:43:24;2.58;;;2.35;;
7150;SDS011;3617;48.836;9.172;2023-06-14T11:45:52;3.05;;;2.60;;
7150;SDS011;3617;48.836;9.172;2023-06-14T11:48:18;3.40;;;2.42;;
7150;SDS011;3617;48.836;9.172;2023-06-14T11:50:44;2.58;;;2.38;;
7150;SDS011;3617;48.836;9.172;2023-06-14T11:53:16;3.22;;;2.67;;
7150;SDS011;3617;48.836;9.172;2023-06-14T11:55:42;3.25;;;2.45;;
7150;SDS011;3617;48.836;9.172;2023-06-14T11:58:10;3.63;;;2.30;;
7150;SDS011;3617;48.836;9.172;2023-06-14T12:00:36;2.80;;;2.50;;
7150;SDS011;3617;48.836;9.172;2023-06-14T12:03:02;3.15;;;2.40;;
7150;SDS011;3617;48.836;9.172;2023-06-14T12:05:28;3.38;;;2.40;;
7150;SDS011;3617;48.836;9.172;2023-06-14T12:07:59;2.85;;;2.55;;
7150;SDS011;3617;48.836;9.172;2023-06-14T12:10:25;3.95;;;2.60;;
7150;SDS011;3617;48.836;9.172;2023-06-14T12:12:56;3.88;;;2.90;;
7150;SDS011;3617;48.836;9.172;2023-06-14T12:15:22;2.60;;;2.40;;
7150;SDS011;3617;48.836;9.172;2023-06-14T12:17:48;3.03;;;2.50;;
7150;SDS011;3617;48.836;9.172;2023-06-14T12:20:15;3.25;;;2.13;;
7150;SDS011;3617;48.836;9.172;2023-06-14T12:22:51;3.15;;;2.45;;
7150;SDS011;3617;48.836;9.172;2023-06-14T12:25:34;3.00;;;2.50;;
7150;SDS011;3617;48.836;9.172;2023-06-14T12:28:05;4.65;;;2.63;;
7150;SDS011;3617;48.836;9.172;2023-06-14T12:30:31;2.92;;;2.40;;
7150;SDS011;3617;48.836;9.172;2023-06-14T12:32:57;3.75;;;2.80;;
7150;SDS011;3617;48.836;9.172;2023-06-14T12:35:23;3.25;;;2.47;;
7150;SDS011;3617;48.836;9.172;2023-06-14T12:37:49;3.28;;;2.88;;
7150;SDS011;3617;48.836;9.172;2023-06-14T12:40:15;3.53;;;2.70;;
7150;SDS011;3617;48.836;9.172;2023-06-14T12:42:41;4.63;;;2.85;;
7150;SDS011;3617;48.836;9.172;2023-06-14T12:45:08;2.90;;;2.60;;
7150;SDS011;3617;48.836;9.172;2023-06-14T12:47:34;3.00;;;2.50;;
7150;SDS011;3617;48.836;9.172;2023-06-14T12:50:00;3.40;;;2.85;;
7150;SDS011;3617;48.836;9.172;2023-06-14T12:52:27;2.85;;;2.60;;
7150;SDS011;3617;48.836;9.172;2023-06-14T12:54:53;2.45;;;2.25;;
7150;SDS011;3617;48.836;9.172;2023-06-14T12:57:19;2.58;;;2.38;;
7150;SDS011;3617;48.836;9.172;2023-06-14T12:59:45;3.33;;;2.70;;
7150;SDS011;3617;48.836;9.172;2023-06-14T13:02:15;3.13;;;2.80;;
7150;SDS011;3617;48.836;9.172;2023-06-14T13:04:41;3.97;;;2.70;;
7150;SDS011;3617;48.836;9.172;2023-06-14T13:07:07;3.00;;;2.63;;
7150;SDS011;3617;48.836;9.172;2023-06-14T13:09:33;3.05;;;2.75;;
7150;SDS011;3617;48.836;9.172;2023-06-14T13:12:00;3.60;;;2.60;;
7150;SDS011;3617;48.836;9.172;2023-06-14T13:14:26;3.10;;;2.80;;
7150;SDS011;3617;48.836;9.172;2023-06-14T13:16:52;3.33;;;2.40;;
7150;SDS011;3617;48.836;9.172;2023-06-14T13:19:18;4.28;;;2.78;;
7150;SDS011;3617;48.836;9.172;2023-06-14T13:21:44;3.92;;;2.78;;
7150;SDS011;3617;48.836;9.172;2023-06-14T13:24:10;2.97;;;2.67;;
7150;SDS011;3617;48.836;9.172;2023-06-14T13:26:36;3.83;;;2.40;;
7150;SDS011;3617;48.836;9.172;2023-06-14T13:29:02;3.50;;;2.67;;
7150;SDS011;3617;48.836;9.172;2023-06-14T13:31:28;3.15;;;2.80;;
7150;SDS011;3617;48.836;9.172;2023-06-14T13:33:55;2.95;;;2.45;;
7150;SDS011;3617;48.836;9.172;2023-06-14T13:36:21;4.68;;;2.60;;
7150;SDS011;3617;48.836;9.172;2023-06-14T13:38:47;2.92;;;2.63;;
7150;SDS011;3617;48.836;9.172;2023-06-14T13:41:13;3.78;;;2.47;;
7150;SDS011;3617;48.836;9.172;2023-06-14T13:43:39;5.90;;;2.70;;
7150;SDS011;3617;48.836;9.172;2023-06-14T13:46:05;4.70;;;2.78;;
7150;SDS011;3617;48.836;9.172;2023-06-14T13:48:31;5.43;;;3.03;;
7150;SDS011;3617;48.836;9.172;2023-06-14T13:50:59;3.33;;;2.80;;
7150;SDS011;3617;48.836;9.172;2023-06-14T13:53:25;2.90;;;2.53;;
7150;SDS011;3617;48.836;9.172;2023-06-14T13:55:51;4.63;;;2.40;;
7150;SDS011;3617;48.836;9.172;2023-06-14T13:58:18;2.70;;;2.42;;
7150;SDS011;3617;48.836;9.172;2023-06-14T14:00:44;4.45;;;2.80;;
7150;SDS011;3617;48.836;9.172;2023-06-14T14:03:10;3.35;;;2.80;;
7150;SDS011;3617;48.836;9.172;2023-06-14T14:05:36;2.80;;;2.50;;
7150;SDS011;3617;48.836;9.172;2023-06-14T14:08:03;5.82;;;2.75;;
7150;SDS011;3617;48.836;9.172;2023-06-14T14:10:29;3.38;;;2.83;;
7150;SDS011;3617;48.836;9.172;2023-06-14T14:12:55;4.95;;;2.60;;
7150;SDS011;3617;48.836;9.172;2023-06-14T14:15:21;4.63;;;2.50;;
7150;SDS011;3617;48.836;9.172;2023-06-14T14:17:47;3.20;;;2.88;;
7150;SDS011;3617;48.836;9.172;2023-06-14T14:20:13;2.92;;;2.58;;
7150;SDS011;3617;48.836;9.172;2023-06-14T14:22:43;3.72;;;2.85;;
7150;SDS011;3617;48.836;9.172;2023-06-14T14:25:10;4.63;;;3.00;;
7150;SDS011;3617;48.836;9.172;2023-06-14T14:27:36;4.05;;;2.33;;
7150;SDS011;3617;48.836;9.172;2023-06-14T14:30:03;2.67;;;2.47;;
7150;SDS011;3617;48.836;9.172;2023-06-14T14:32:29;4.03;;;2.75;;
7150;SDS011;3617;48.836;9.172;2023-06-14T14:34:55;2.90;;;2.60;;
7150;SDS011;3617;48.836;9.172;2023-06-14T14:37:21;3.53;;;2.45;;
7150;SDS011;3617;48.836;9.172;2023-06-14T14:39:47;2.80;;;2.55;;
7150;SDS011;3617;48.836;9.172;2023-06-14T14:42:13;3.70;;;2.83;;
7150;SDS011;3617;48.836;9.172;2023-06-14T14:44:39;2.67;;;2.47;;
7150;SDS011;3617;48.836;9.172;2023-06-14T14:47:05;2.92;;;2.50;;
7150;SDS011;3617;48.836;9.172;2023-06-14T14:49:31;3.03;;;2.70;;
7150;SDS011;3617;48.836;9.172;2023-06-14T14:51:58;3.00;;;2.70;;
7150;SDS011;3617;48.836;9.172;2023-06-14T14:54:24;4.38;;;2.90;;
7150;SDS011;3617;48.836;9.172;2023-06-14T14:56:50;4.32;;;3.05;;
7150;SDS011;3617;48.836;9.172;2023-06-14T14:59:16;2.70;;;2.47;;
7150;SDS011;3617;48.836;9.172;2023-06-14T15:01:43;2.75;;;2.40;;
7150;SDS011;3617;48.836;9.172;2023-06-14T15:04:10;3.20;;;2.90;;
7150;SDS011;3617;48.836;9.172;2023-06-14T15:06:37;3.47;;;2.55;;
7150;SDS011;3617;48.836;9.172;2023-06-14T15:09:04;5.18;;;2.65;;
7150;SDS011;3617;48.836;9.172;2023-06-14T15:11:30;3.47;;;2.80;;
7150;SDS011;3617;48.836;9.172;2023-06-14T15:13:56;2.78;;;2.50;;
7150;SDS011;3617;48.836;9.172;2023-06-14T15:16:22;3.33;;;2.67;;
7150;SDS011;3617;48.836;9.172;2023-06-14T15:18:49;2.80;;;2.50;;
7150;SDS011;3617;48.836;9.172;2023-06-14T15:21:15;3.85;;;2.72;;
7150;SDS011;3617;48.836;9.172;2023-06-14T15:23:41;3.22;;;2.58;;
7150;SDS011;3617;48.836;9.172;2023-06-14T15:26:07;3.90;;;2.70;;